Time;durP1;ratioP1;P1;durP2;ratioP2;P2;SDS_P1;SDS_P2;PMS_P1;PMS_P2;Temp;Humidity;BMP_temperature;BMP_pressure;BME280_temperature;BME280_humidity;BME280_pressure;Samples;Min_cycle;Max_cycle;Signal;HPM_P1;HPM_P2
2021/12/20 00:04:27;;;;;;;8.07;4.97;;;;;;;2.83;100.00;99150.00;12744312;23;20013;-79
2021/12/20 00:09:27;;;;;;;10.63;5.55;;;;;;;2.91;100.00;99154.88;12717680;23;20041;-80
2021/12/20 00:14:30;;;;;;;9.75;5.65;;;;;;;2.96;100.00;99146.97;12751564;23;20013;-83
2021/12/20 00:19:32;;;;;;;12.30;5.88;;;;;;;2.89;100.00;99137.59;12726251;23;20022;-79
2021/12/20 00:24:32;;;;;;;12.68;6.13;;;;;;;2.88;100.00;99141.31;12753126;23;20053;-80
2021/12/20 00:29:34;;;;;;;9.75;5.70;;;;;;;2.91;100.00;99144.25;12726963;23;20010;-79
2021/12/20 00:34:36;;;;;;;13.27;6.47;;;;;;;3.01;100.00;99156.81;12748336;23;20346;-79
2021/12/20 00:45:18;;;;;;;10.25;5.72;;;;;;;3.02;100.00;99143.31;12666447;23;20101;-86
2021/12/20 00:50:22;;;;;;;10.85;5.78;;;;;;;3.07;100.00;99143.34;12700697;23;20045;-82
2021/12/20 00:55:25;;;;;;;12.98;5.75;;;;;;;3.07;100.00;99145.19;12773898;23;20429;-79
2021/12/20 01:00:41;;;;;;;9.83;5.17;;;;;;;3.18;100.00;99138.13;12735622;23;20141;-83
2021/12/20 01:05:42;;;;;;;10.60;5.88;;;;;;;3.24;100.00;99139.78;12685290;23;20260;-81
2021/12/20 01:10:49;;;;;;;8.73;4.85;;;;;;;3.32;100.00;99134.78;12719390;23;20393;-79
2021/12/20 01:15:54;;;;;;;10.07;5.22;;;;;;;3.28;100.00;99144.31;12743430;23;20779;-78
2021/12/20 01:20:54;;;;;;;11.50;5.70;;;;;;;3.30;100.00;99146.72;12771353;23;20014;-87
2021/12/20 01:25:56;;;;;;;11.85;5.82;;;;;;;3.30;100.00;99147.53;12790846;23;20082;-78
2021/12/20 01:30:57;;;;;;;9.75;4.93;;;;;;;3.27;100.00;99141.91;12759816;23;20021;-80
2021/12/20 01:35:59;;;;;;;12.32;6.28;;;;;;;3.21;100.00;99150.91;12777935;23;20012;-86
2021/12/20 01:41:01;;;;;;;9.68;5.35;;;;;;;3.24;100.00;99159.13;12795984;23;20029;-87
2021/12/20 01:46:04;;;;;;;9.30;5.40;;;;;;;3.28;100.00;99160.22;12792669;23;20005;-81
2021/12/20 01:56:09;;;;;;;9.85;5.15;;;;;;;3.19;100.00;99161.72;12779629;23;20105;-81
2021/12/20 02:06:30;;;;;;;9.03;4.57;;;;;;;3.27;100.00;99157.81;12748469;23;20061;-81
2021/12/20 02:11:31;;;;;;;9.85;4.70;;;;;;;3.36;100.00;99149.13;12776014;23;20037;-79
2021/12/20 02:16:33;;;;;;;9.10;4.13;;;;;;;3.36;100.00;99145.69;12775781;23;20432;-78
2021/12/20 02:21:33;;;;;;;9.32;4.25;;;;;;;3.41;100.00;99145.75;12763409;23;20013;-78
2021/12/20 02:26:36;;;;;;;8.18;4.05;;;;;;;3.38;100.00;99148.88;12752429;23;20018;-78
2021/12/20 02:37:42;;;;;;;8.63;4.30;;;;;;;3.37;100.00;99141.97;12760077;23;20028;-79
2021/12/20 02:42:22;;;;;;;9.73;5.35;;;;;;;3.26;100.00;99137.66;12735968;23;20354;-80
2021/12/20 02:47:28;;;;;;;8.93;4.65;;;;;;;3.26;100.00;99142.97;12739700;23;20013;-82
2021/12/20 02:52:30;;;;;;;7.47;3.80;;;;;;;3.20;100.00;99149.28;12737368;23;20025;-78
2021/12/20 02:57:35;;;;;;;8.30;3.83;;;;;;;3.21;100.00;99145.59;12732293;23;20024;-80
2021/12/20 03:02:36;;;;;;;8.02;3.85;;;;;;;3.15;100.00;99144.75;12707176;23;20014;-78
2021/12/20 03:07:57;;;;;;;6.82;3.88;;;;;;;3.16;100.00;99150.84;12737898;23;20399;-81
2021/12/20 03:12:58;;;;;;;11.05;4.30;;;;;;;3.08;100.00;99152.09;12726302;23;20049;-82
2021/12/20 03:17:58;;;;;;;6.88;3.70;;;;;;;3.17;100.00;99153.25;12748783;23;20018;-80
2021/12/20 03:23:01;;;;;;;7.80;4.10;;;;;;;3.06;100.00;99165.63;12783054;23;20044;-79
2021/12/20 03:28:02;;;;;;;6.13;3.97;;;;;;;2.91;100.00;99164.66;12791368;23;20013;-83
2021/12/20 03:33:02;;;;;;;8.43;3.97;;;;;;;2.93;100.00;99174.00;12787079;23;20017;-79
2021/12/20 03:38:03;;;;;;;7.43;4.10;;;;;;;2.90;100.00;99182.44;12765504;23;20054;-80
2021/12/20 03:43:05;;;;;;;7.43;4.07;;;;;;;2.94;100.00;99186.19;12779301;23;20005;-90
2021/12/20 03:48:50;;;;;;;8.00;3.80;;;;;;;2.88;100.00;99181.88;12788136;23;20006;-85
2021/12/20 03:53:50;;;;;;;9.32;3.92;;;;;;;2.90;100.00;99178.97;12774103;23;20028;-77
2021/12/20 03:58:51;;;;;;;9.75;4.45;;;;;;;2.86;100.00;99189.28;12755915;23;20033;-78
2021/12/20 04:03:54;;;;;;;7.43;3.80;;;;;;;2.81;100.00;99202.47;12758717;23;20017;-80
2021/12/20 04:08:55;;;;;;;;;;;;;;;2.88;100.00;99194.34;12759360;23;20029;-81
2021/12/20 04:13:58;;;;;;;19.08;4.30;;;;;;;2.69;100.00;99201.84;12758177;23;19920;-87
2021/12/20 04:18:58;;;;;;;6.63;4.20;;;;;;;2.77;100.00;99196.09;12755310;23;20023;-81
2021/12/20 04:23:59;;;;;;;6.78;3.90;;;;;;;2.64;100.00;99204.41;12713081;23;20061;-80
2021/12/20 04:29:00;;;;;;;7.78;4.03;;;;;;;2.51;100.00;99198.44;12692295;23;20413;-80
2021/12/20 04:34:02;;;;;;;6.32;3.75;;;;;;;2.41;100.00;99202.84;12746013;23;20088;-79
2021/12/20 04:39:08;;;;;;;8.05;4.13;;;;;;;2.26;100.00;99211.38;12754727;23;20354;-78
2021/12/20 04:44:12;;;;;;;10.93;5.15;;;;;;;2.21;100.00;99214.78;12761578;23;20013;-77
2021/12/20 04:49:16;;;;;;;9.02;4.78;;;;;;;2.14;100.00;99219.44;12728325;23;20116;-78
2021/12/20 04:54:18;;;;;;;8.20;4.25;;;;;;;2.04;100.00;99211.38;12750296;23;20018;-78
2021/12/20 04:59:19;;;;;;;9.75;4.38;;;;;;;2.18;100.00;99211.81;12744233;23;20073;-78
2021/12/20 05:04:20;;;;;;;8.77;4.25;;;;;;;2.09;100.00;99215.91;12740899;23;20017;-80
2021/12/20 05:09:25;;;;;;;11.45;4.55;;;;;;;2.00;100.00;99223.47;12743121;23;20014;-83
2021/12/20 05:14:26;;;;;;;8.52;4.53;;;;;;;1.89;100.00;99224.38;12717583;23;20026;-80
2021/12/20 05:19:27;;;;;;;9.30;3.78;;;;;;;1.87;100.00;99224.63;12718406;23;20022;-79
2021/12/20 05:24:27;;;;;;;5.70;3.65;;;;;;;1.83;100.00;99236.75;12696876;23;20025;-81
2021/12/20 05:29:28;;;;;;;5.88;3.38;;;;;;;1.85;100.00;99244.44;12723710;23;20049;-81
2021/12/20 05:34:28;;;;;;;9.63;4.10;;;;;;;1.63;100.00;99244.34;12723030;23;20080;-83
2021/12/20 05:39:29;;;;;;;9.35;4.40;;;;;;;1.54;100.00;99251.09;12747022;23;20025;-78
2021/12/20 05:44:32;;;;;;;10.63;5.03;;;;;;;1.41;100.00;99253.00;12755085;23;20065;-82
2021/12/20 05:49:34;;;;;;;11.38;5.07;;;;;;;1.35;100.00;99264.53;12752600;23;20025;-80
2021/12/20 05:54:35;;;;;;;8.75;4.82;;;;;;;1.23;100.00;99270.94;12786868;23;20071;-87
2021/12/20 05:59:36;;;;;;;9.82;4.50;;;;;;;1.17;100.00;99280.59;12793108;23;20073;-78
2021/12/20 06:04:38;;;;;;;8.20;5.25;;;;;;;1.09;100.00;99291.56;12788897;23;20048;-83
2021/12/20 06:09:39;;;;;;;9.85;5.78;;;;;;;1.05;100.00;99291.25;12736192;23;20044;-84
2021/12/20 06:14:40;;;;;;;8.23;5.60;;;;;;;0.98;100.00;99295.06;12760585;23;20021;-81
2021/12/20 06:19:41;;;;;;;10.05;5.18;;;;;;;0.87;100.00;99296.69;12759252;23;20013;-80
2021/12/20 06:24:42;;;;;;;15.65;6.55;;;;;;;0.96;100.00;99299.78;12775381;23;20025;-84
2021/12/20 06:29:43;;;;;;;11.07;5.53;;;;;;;0.83;100.00;99314.88;12723271;23;20076;-80
2021/12/20 06:34:44;;;;;;;10.55;5.25;;;;;;;0.80;100.00;99309.22;12771756;23;20021;-77
2021/12/20 06:39:46;;;;;;;9.27;4.88;;;;;;;0.84;100.00;99316.47;12779735;23;20077;-78
2021/12/20 06:44:46;;;;;;;15.65;6.55;;;;;;;0.67;100.00;99322.72;12713413;23;20733;-79
2021/12/20 06:49:48;;;;;;;11.15;5.55;;;;;;;0.82;100.00;99328.28;12724007;23;20018;-80
2021/12/20 06:54:52;;;;;;;11.52;5.82;;;;;;;0.56;100.00;99324.34;12746556;23;20017;-80
2021/12/20 06:59:52;;;;;;;8.45;4.65;;;;;;;0.53;100.00;99330.06;12743410;23;20013;-80
2021/12/20 07:04:53;;;;;;;12.95;5.68;;;;;;;0.36;100.00;99332.59;12715544;23;20025;-80
2021/12/20 07:09:53;;;;;;;10.52;5.85;;;;;;;0.31;100.00;99331.69;12691793;23;20028;-80
2021/12/20 07:14:54;;;;;;;13.68;6.25;;;;;;;0.13;100.00;99335.25;12710618;23;20033;-80
2021/12/20 07:19:57;;;;;;;11.70;5.97;;;;;;;-0.02;100.00;99330.41;12735180;23;20017;-79
2021/12/20 07:24:58;;;;;;;13.70;6.03;;;;;;;0.16;100.00;99340.88;12745556;23;20041;-79
2021/12/20 07:29:59;;;;;;;15.52;6.78;;;;;;;0.32;100.00;99343.88;12742118;23;20259;-82
2021/12/20 07:35:00;;;;;;;14.73;6.28;;;;;;;0.27;100.00;99348.00;12738290;23;20025;-82
2021/12/20 07:40:01;;;;;;;12.27;5.50;;;;;;;0.30;100.00;99352.03;12780787;23;20025;-79
2021/12/20 07:45:03;;;;;;;12.70;5.43;;;;;;;0.44;100.00;99358.66;12736613;23;20021;-85
2021/12/20 07:50:07;;;;;;;9.48;5.07;;;;;;;0.53;100.00;99354.66;12697439;23;20025;-83
2021/12/20 07:55:08;;;;;;;14.45;5.70;;;;;;;0.59;100.00;99365.34;12750592;23;20049;-83
2021/12/20 08:00:11;;;;;;;13.45;5.53;;;;;;;0.61;100.00;99365.91;12711144;23;20021;-81
2021/12/20 08:05:15;;;;;;;9.57;5.30;;;;;;;0.59;100.00;99354.78;12755616;23;20488;-80
2021/12/20 08:10:20;;;;;;;10.57;5.85;;;;;;;0.78;100.00;99370.25;12763734;23;20342;-80
2021/12/20 08:15:26;;;;;;;11.10;5.32;;;;;;;0.82;100.00;99352.91;12759079;23;20119;-79
2021/12/20 08:20:27;;;;;;;12.45;5.97;;;;;;;0.97;100.00;99364.81;12769156;23;20018;-84
2021/12/20 08:25:30;;;;;;;11.70;4.23;;;;;;;1.11;100.00;99368.81;12778967;23;20418;-80
2021/12/20 08:30:31;;;;;;;8.80;4.22;;;;;;;1.01;100.00;99363.31;12761812;23;20037;-90
2021/12/20 08:35:32;;;;;;;13.00;5.55;;;;;;;1.21;100.00;99369.00;12790877;23;20049;-85
2021/12/20 08:40:33;;;;;;;8.10;4.80;;;;;;;1.14;100.00;99371.78;12791952;23;20006;-81
2021/12/20 08:45:34;;;;;;;11.02;4.85;;;;;;;1.34;100.00;99383.78;12742458;23;20346;-78
2021/12/20 08:50:35;;;;;;;9.35;4.80;;;;;;;1.58;100.00;99364.16;12746039;23;20014;-79
2021/12/20 08:55:38;;;;;;;10.40;5.47;;;;;;;1.74;100.00;99372.34;12702169;23;20068;-81
2021/12/20 09:00:40;;;;;;;10.13;5.43;;;;;;;1.42;100.00;99378.13;12746639;23;20092;-81
2021/12/20 09:05:42;;;;;;;8.77;4.57;;;;;;;1.42;100.00;99378.94;12747140;23;20018;-81
2021/12/20 09:10:44;;;;;;;7.65;3.72;;;;;;;1.44;100.00;99386.63;12742231;23;20018;-82
2021/12/20 09:15:47;;;;;;;8.30;4.18;;;;;;;1.43;100.00;99392.97;12731575;23;20032;-82
2021/12/20 09:20:55;;;;;;;9.27;4.40;;;;;;;1.69;100.00;99387.09;12728944;23;20125;-81
2021/12/20 09:25:56;;;;;;;9.15;3.78;;;;;;;1.90;100.00;99390.91;12754585;23;20005;-82
2021/12/20 09:30:59;;;;;;;9.70;4.03;;;;;;;1.87;100.00;99391.38;12761470;23;20033;-84
2021/12/20 09:36:00;;;;;;;6.73;3.63;;;;;;;1.97;100.00;99399.50;12791640;23;20023;-81
2021/12/20 09:41:13;;;;;;;12.52;4.70;;;;;;;2.05;100.00;99394.88;12784364;23;20022;-81
2021/12/20 09:46:16;;;;;;;10.43;3.90;;;;;;;1.82;100.00;99399.22;12728934;23;20346;-81
2021/12/20 09:51:18;;;;;;;12.90;4.03;;;;;;;1.93;100.00;99400.22;12750679;23;20022;-83
2021/12/20 09:56:19;;;;;;;6.72;3.47;;;;;;;1.88;100.00;99395.63;12721805;23;20025;-81
2021/12/20 10:01:22;;;;;;;9.23;3.92;;;;;;;2.00;100.00;99401.66;12730664;23;20053;-74
2021/12/20 10:06:23;;;;;;;7.43;3.90;;;;;;;2.12;100.00;99390.22;12727424;23;20605;-73
2021/12/20 10:11:29;;;;;;;12.02;3.90;;;;;;;2.02;100.00;99384.75;12728834;23;20049;-78
2021/12/20 10:16:30;;;;;;;9.13;3.53;;;;;;;2.01;100.00;99383.94;12728215;23;20029;-77
2021/12/20 10:21:36;;;;;;;9.75;4.35;;;;;;;2.17;100.00;99385.78;12705296;23;20050;-78
2021/12/20 10:26:40;;;;;;;9.63;4.00;;;;;;;2.32;100.00;99382.59;12716827;23;20112;-79
2021/12/20 10:31:42;;;;;;;12.57;3.70;;;;;;;2.42;100.00;99380.09;12770148;23;20018;-80
2021/12/20 10:36:54;;;;;;;9.82;3.75;;;;;;;2.54;100.00;99385.28;12763005;23;20028;-79
2021/12/20 10:41:55;;;;;;;8.48;3.25;;;;;;;2.61;100.00;99377.19;12787210;23;20028;-77
2021/12/20 10:47:01;;;;;;;10.32;4.47;;;;;;;2.51;100.00;99375.19;12780279;23;20021;-77
2021/12/20 10:52:02;;;;;;;8.00;3.78;;;;;;;2.70;100.00;99376.50;12780175;23;20013;-76
2021/12/20 10:57:05;;;;;;;8.88;3.63;;;;;;;2.69;100.00;99374.13;12749585;23;20021;-78
2021/12/20 11:12:45;;;;;;;10.30;3.17;;;;;;;3.03;100.00;99365.03;12767586;23;20040;-78
2021/12/20 11:17:46;;;;;;;7.30;3.17;;;;;;;3.76;100.00;99362.09;12687174;23;20026;-77
2021/12/20 11:22:47;;;;;;;5.35;2.40;;;;;;;3.64;100.00;99344.44;12709614;23;20097;-76
2021/12/20 11:27:53;;;;;;;4.18;2.00;;;;;;;4.18;100.00;99344.38;12730193;23;20025;-77
2021/12/20 11:32:55;;;;;;;5.55;2.00;;;;;;;4.13;100.00;99333.72;12730245;23;20025;-78
2021/12/20 11:37:55;;;;;;;2.13;1.33;;;;;;;4.19;100.00;99338.00;12679381;23;20029;-77
2021/12/20 11:42:56;;;;;;;3.38;1.60;;;;;;;4.13;100.00;99332.94;12731515;23;20441;-77
2021/12/20 11:48:11;;;;;;;2.28;1.13;;;;;;;4.46;94.66;99329.16;12730934;23;20056;-79
2021/12/20 11:53:14;;;;;;;2.33;1.50;;;;;;;3.64;100.00;99323.22;12732602;23;20045;-79
2021/12/20 11:58:18;;;;;;;6.78;2.08;;;;;;;3.99;100.00;99324.56;12706571;23;20021;-77
2021/12/20 12:03:22;;;;;;;4.43;1.83;;;;;;;4.67;100.00;99314.94;12707107;23;20019;-78
2021/12/20 12:08:32;;;;;;;4.82;2.10;;;;;;;4.32;100.00;99317.38;12734379;23;20017;-81
2021/12/20 12:13:47;;;;;;;4.60;2.03;;;;;;;4.95;100.00;99316.38;12735667;23;20053;-78
2021/12/20 12:18:51;;;;;;;3.55;2.10;;;;;;;4.76;100.00;99318.69;12680635;23;20676;-79
2021/12/20 12:23:51;;;;;;;4.72;2.03;;;;;;;5.17;99.46;99310.06;12736957;23;20021;-80
2021/12/20 12:28:55;;;;;;;5.75;2.00;;;;;;;4.35;96.83;99314.19;12714056;23;20076;-80
2021/12/20 12:34:08;;;;;;;5.18;2.08;;;;;;;4.91;94.82;99298.53;12743171;23;20021;-85
2021/12/20 12:39:37;;;;;;;2.90;1.50;;;;;;;4.83;86.02;99295.28;12738263;23;20349;-81
2021/12/20 12:44:48;;;;;;;2.72;1.35;;;;;;;5.46;83.09;99305.06;12751235;23;20401;-80
2021/12/20 12:49:51;;;;;;;5.25;1.50;;;;;;;5.39;82.18;99311.47;12744508;23;20029;-79
2021/12/20 12:55:02;;;;;;;2.70;1.50;;;;;;;4.52;89.78;99302.34;12772710;23;20164;-80
2021/12/20 13:00:10;;;;;;;2.92;1.30;;;;;;;4.34;92.29;99305.44;12767726;23;20152;-82
2021/12/20 13:05:23;;;;;;;4.90;1.70;;;;;;;3.63;99.15;99302.22;12744599;23;20037;-78
2021/12/20 13:10:38;;;;;;;4.97;1.80;;;;;;;3.39;100.00;99296.44;12737394;23;20041;-79
2021/12/20 13:16:16;;;;;;;3.53;1.70;;;;;;;3.34;100.00;99299.03;12736487;23;20044;-79
2021/12/20 13:21:08;;;;;;;3.83;1.50;;;;;;;3.07;100.00;99301.66;12726440;23;20038;-74
2021/12/20 13:26:13;;;;;;;4.73;1.40;;;;;;;3.12;98.27;99294.59;12712726;23;20315;-81
2021/12/20 13:31:19;;;;;;;4.35;1.60;;;;;;;3.01;100.00;99284.88;12748844;23;20027;-79
2021/12/20 13:36:23;;;;;;;7.63;1.90;;;;;;;2.88;100.00;99285.28;12775299;23;20017;-79
2021/12/20 13:41:30;;;;;;;5.10;1.73;;;;;;;2.93;100.00;99289.84;12730382;23;20040;-78
2021/12/20 13:51:47;;;;;;;2.85;1.20;;;;;;;2.72;100.00;99279.00;12740804;23;20088;-79
2021/12/20 13:57:11;;;;;;;5.38;1.60;;;;;;;2.55;100.00;99286.19;12740539;23;20060;-82
2021/12/20 14:02:14;;;;;;;;;;;;;;;2.50;100.00;99284.28;12741830;23;20025;-79
2021/12/20 14:07:36;;;;;;;5.78;1.90;;;;;;;2.50;100.00;99280.84;12712027;23;19920;-79
2021/12/20 14:12:54;;;;;;;9.00;2.40;;;;;;;2.54;100.00;99290.69;12744169;23;20017;-79
2021/12/20 14:18:04;;;;;;;4.57;1.98;;;;;;;2.43;100.00;99296.09;12748781;23;20010;-80
2021/12/20 14:23:21;;;;;;;5.35;1.70;;;;;;;2.52;100.00;99295.44;12753878;23;20021;-80
2021/12/20 14:28:28;;;;;;;4.43;2.00;;;;;;;2.35;100.00;99299.97;12778457;23;20009;-78
2021/12/20 14:33:47;;;;;;;9.30;3.88;;;;;;;2.39;100.00;99300.31;12755168;23;20052;-73
2021/12/20 14:39:07;;;;;;;5.18;2.20;;;;;;;2.27;100.00;99297.75;12776415;23;20306;-82
2021/12/20 14:45:00;;;;;;;5.07;2.17;;;;;;;2.21;100.00;99301.38;12774749;23;20021;-83
2021/12/20 14:49:56;;;;;;;7.15;2.55;;;;;;;2.16;100.00;99309.22;12766221;23;20059;-82
2021/12/20 14:55:06;;;;;;;10.02;2.72;;;;;;;2.10;100.00;99310.19;12781643;23;20032;-82
2021/12/20 15:00:08;;;;;;;6.40;2.88;;;;;;;1.88;100.00;99321.53;12775810;23;20308;-80
2021/12/20 15:05:12;;;;;;;5.47;2.50;;;;;;;1.67;100.00;99322.22;12801009;23;20005;-82
2021/12/20 15:10:17;;;;;;;7.10;2.60;;;;;;;1.51;100.00;99313.22;12750983;23;20088;-79
2021/12/20 15:15:17;;;;;;;8.70;3.00;;;;;;;1.54;100.00;99318.03;12758571;23;20020;-76
2021/12/20 15:20:19;;;;;;;7.28;3.15;;;;;;;1.53;100.00;99316.44;12738954;23;20346;-78
2021/12/20 15:25:21;;;;;;;7.47;3.17;;;;;;;1.45;100.00;99326.59;12739403;23;20071;-76
2021/12/20 15:30:23;;;;;;;10.00;3.77;;;;;;;1.30;100.00;99322.66;12735266;23;20814;-77
2021/12/20 15:35:24;;;;;;;13.38;4.90;;;;;;;1.11;100.00;99321.22;12734433;23;20351;-77
2021/12/20 15:40:24;;;;;;;9.23;4.35;;;;;;;0.92;100.00;99323.25;12758208;23;20020;-78
2021/12/20 15:45:29;;;;;;;12.88;5.90;;;;;;;1.07;100.00;99328.00;12760515;23;20056;-78
2021/12/20 15:50:31;;;;;;;12.70;3.90;;;;;;;1.08;100.00;99327.78;12743887;23;20010;-78
2021/12/20 15:55:33;;;;;;;8.50;3.95;;;;;;;0.84;100.00;99327.03;12763004;23;20433;-79
2021/12/20 16:00:34;;;;;;;7.93;3.00;;;;;;;0.52;100.00;99336.38;12774333;23;20024;-78
2021/12/20 16:05:34;;;;;;;5.25;3.03;;;;;;;0.18;100.00;99338.84;12786462;23;20012;-80
2021/12/20 16:10:36;;;;;;;6.90;4.22;;;;;;;-0.12;100.00;99346.00;12782077;23;20048;-77
2021/12/20 16:15:36;;;;;;;6.20;3.58;;;;;;;-0.34;100.00;99353.66;12763432;23;20017;-78
2021/12/20 16:20:37;;;;;;;8.40;3.95;;;;;;;-0.59;100.00;99361.69;12768980;23;20101;-80
2021/12/20 16:25:39;;;;;;;7.95;4.93;;;;;;;-0.85;100.00;99370.75;12709120;23;20014;-79
2021/12/20 16:30:42;;;;;;;7.43;4.10;;;;;;;-0.99;100.00;99359.56;12733971;23;20484;-78
2021/12/20 16:35:44;;;;;;;7.70;4.32;;;;;;;-1.00;100.00;99365.06;12718218;23;20026;-84
2021/12/20 16:40:45;;;;;;;10.52;5.80;;;;;;;-0.92;100.00;99364.75;12750248;23;20018;-82
2021/12/20 16:50:52;;;;;;;8.32;4.90;;;;;;;-1.23;100.00;99363.88;12751850;23;20021;-85
2021/12/20 16:56:57;;;;;;;8.52;5.18;;;;;;;-1.46;100.00;99382.97;12754168;23;20021;-84
2021/12/20 17:02:29;;;;;;;10.05;5.13;;;;;;;-1.63;100.00;99379.28;12748183;23;20042;-85
2021/12/20 17:08:07;;;;;;;9.75;4.72;;;;;;;-1.80;100.00;99383.47;12760921;23;20081;-83
2021/12/20 17:13:14;;;;;;;10.63;5.35;;;;;;;-1.93;100.00;99384.38;12807283;23;20013;-81
2021/12/20 17:18:35;;;;;;;13.05;6.28;;;;;;;-1.91;100.00;99387.63;12788961;23;20072;-81
2021/12/20 17:23:36;;;;;;;8.85;5.30;;;;;;;-2.01;100.00;99401.25;12842755;23;20021;-80
2021/12/20 17:28:37;;;;;;;11.60;5.65;;;;;;;-2.05;100.00;99396.63;12803778;23;20017;-83
2021/12/20 17:33:42;;;;;;;10.80;5.40;;;;;;;-2.14;100.00;99400.53;12784274;23;20036;-83
2021/12/20 17:38:42;;;;;;;12.55;5.78;;;;;;;-2.25;100.00;99406.47;12786650;23;20017;-79
2021/12/20 17:43:43;;;;;;;12.32;6.10;;;;;;;-2.23;100.00;99412.31;12759546;23;20274;-83
2021/12/20 17:48:45;;;;;;;7.88;4.88;;;;;;;-2.38;100.00;99413.44;12805249;23;20049;-79
2021/12/20 17:53:47;;;;;;;11.25;5.90;;;;;;;-2.44;100.00;99416.09;12819295;23;20028;-80
2021/12/20 17:58:49;;;;;;;15.75;7.10;;;;;;;-2.50;100.00;99416.91;12821574;23;20124;-83
2021/12/20 18:03:51;;;;;;;17.13;9.75;;;;;;;-2.34;100.00;99419.06;12790704;23;20001;-84
2021/12/20 18:08:53;;;;;;;21.90;12.27;;;;;;;-2.01;100.00;99424.13;12761241;23;20009;-79
2021/12/20 18:13:54;;;;;;;21.23;11.13;;;;;;;-2.05;100.00;99433.44;12814646;23;20017;-83
2021/12/20 18:19:03;;;;;;;21.50;12.60;;;;;;;-1.99;100.00;99437.06;12830991;23;20017;-83
2021/12/20 18:24:09;;;;;;;19.50;12.27;;;;;;;-2.01;100.00;99435.44;12797259;23;20048;-80
2021/12/20 18:29:13;;;;;;;18.45;9.65;;;;;;;-1.99;100.00;99437.06;12818450;23;20071;-80
2021/12/20 18:34:15;;;;;;;19.42;10.98;;;;;;;-1.99;100.00;99442.31;12799473;23;20033;-80
2021/12/20 18:39:15;;;;;;;22.00;11.00;;;;;;;-2.08;100.00;99434.69;12769981;23;20040;-80
2021/12/20 18:44:18;;;;;;;19.70;11.20;;;;;;;-2.27;100.00;99440.88;12787723;23;20017;-81
2021/12/20 18:49:22;;;;;;;19.73;10.02;;;;;;;-2.44;100.00;99443.16;12807304;23;20043;-81
2021/12/20 18:54:22;;;;;;;20.23;12.20;;;;;;;-2.45;100.00;99441.56;12788282;23;20744;-80
2021/12/20 18:59:23;;;;;;;25.60;12.70;;;;;;;-2.28;100.00;99451.59;12792060;23;20025;-81
2021/12/20 19:04:24;;;;;;;19.20;11.60;;;;;;;-2.24;100.00;99450.16;12823455;23;20013;-81
2021/12/20 19:09:28;;;;;;;21.55;12.77;;;;;;;-2.22;100.00;99459.44;12856049;23;20046;-82
2021/12/20 19:20:49;;;;;;;21.75;13.18;;;;;;;-2.41;100.00;99449.81;12809073;23;20047;-82
2021/12/20 19:25:54;;;;;;;22.50;12.77;;;;;;;-2.65;100.00;99448.69;12847162;23;20053;-83
2021/12/20 19:30:56;;;;;;;22.30;13.15;;;;;;;-2.75;100.00;99450.97;12825281;23;20013;-79
2021/12/20 19:36:02;;;;;;;27.90;16.33;;;;;;;-2.81;100.00;99449.19;12821210;23;20013;-80
2021/12/20 19:41:12;;;;;;;29.63;14.93;;;;;;;-2.74;100.00;99450.78;12804505;23;20698;-81
2021/12/20 19:46:18;;;;;;;24.70;14.45;;;;;;;-2.55;100.00;99456.19;12813202;23;20449;-80
2021/12/20 19:51:22;;;;;;;23.33;12.82;;;;;;;-2.59;100.00;99458.41;12811813;23;20088;-81
2021/12/20 19:56:25;;;;;;;22.08;12.15;;;;;;;-2.68;100.00;99457.81;12832941;23;20039;-81
2021/12/20 20:01:33;;;;;;;23.05;14.07;;;;;;;-2.85;100.00;99448.78;12818563;23;20448;-79
2021/12/20 20:06:38;;;;;;;23.83;13.75;;;;;;;-2.96;100.00;99457.31;12807834;23;20013;-82
2021/12/20 20:11:41;;;;;;;22.65;13.20;;;;;;;-2.86;100.00;99460.31;12816036;23;20052;-80
2021/12/20 20:22:24;;;;;;;22.60;12.35;;;;;;;-3.20;100.00;99462.22;12747187;23;20021;-81
2021/12/20 20:27:38;;;;;;;24.30;14.30;;;;;;;-3.05;100.00;99461.97;12753524;23;20086;-81
2021/12/20 20:33:01;;;;;;;38.38;21.40;;;;;;;-3.10;100.00;99461.00;12758533;23;20029;-84
2021/12/20 20:38:25;;;;;;;34.17;20.85;;;;;;;-3.09;100.00;99467.84;12758743;23;20079;-83
2021/12/20 20:43:46;;;;;;;36.25;21.58;;;;;;;-3.08;100.00;99467.63;12744325;23;20005;-84
2021/12/20 20:48:57;;;;;;;29.40;17.65;;;;;;;-3.31;100.00;99464.63;12760536;23;20118;-82
2021/12/20 20:54:17;;;;;;;29.00;17.50;;;;;;;-3.39;100.00;99467.47;12776500;23;20033;-88
2021/12/20 20:59:38;;;;;;;34.45;19.25;;;;;;;-3.39;100.00;99470.88;12776854;23;20006;-84
2021/12/20 21:05:05;;;;;;;38.75;20.27;;;;;;;-3.44;100.00;99471.50;12766789;23;20009;-87
2021/12/20 21:10:27;;;;;;;35.22;18.95;;;;;;;-3.38;100.00;99474.31;12734810;23;20033;-87
2021/12/20 21:15:36;;;;;;;26.88;16.90;;;;;;;-3.60;100.00;99482.41;12766824;23;20017;-85
2021/12/20 21:21:16;;;;;;;26.77;17.67;;;;;;;-3.77;100.00;99476.75;12690739;23;20040;-83
2021/12/20 21:26:23;;;;;;;34.25;19.67;;;;;;;-3.73;100.00;99467.47;12681254;23;20022;-82
2021/12/20 21:31:39;;;;;;;54.35;28.42;;;;;;;-3.58;100.00;99467.25;12689924;23;20040;-87
2021/12/20 21:37:01;;;;;;;31.10;18.98;;;;;;;-3.59;100.00;99464.84;12715184;23;20020;-85
2021/12/20 21:42:04;;;;;;;30.52;17.85;;;;;;;-3.66;100.00;99467.47;12733664;23;20050;-83
2021/12/20 21:47:12;;;;;;;29.38;17.23;;;;;;;-3.82;100.00;99465.25;12701605;23;20018;-80
2021/12/20 21:52:26;;;;;;;31.60;18.35;;;;;;;-3.96;100.00;99459.16;12705402;23;20022;-81
2021/12/20 21:57:34;;;;;;;29.02;17.65;;;;;;;-3.82;100.00;99452.94;12716057;23;20025;-84
2021/12/20 22:02:40;;;;;;;32.47;17.77;;;;;;;-3.91;100.00;99462.00;12717608;23;20013;-83
2021/12/20 22:07:42;;;;;;;24.30;15.27;;;;;;;-4.14;100.00;99461.56;12728292;23;20237;-83
2021/12/20 22:12:42;;;;;;;32.38;18.30;;;;;;;-4.12;100.00;99462.16;12732834;23;20045;-84
2021/12/20 22:18:11;;;;;;;25.65;17.25;;;;;;;-4.12;100.00;99467.41;12728302;23;20006;-86
2021/12/20 22:23:15;;;;;;;29.55;16.38;;;;;;;-4.28;100.00;99459.94;12723258;23;20066;-80
2021/12/20 22:29:08;;;;;;;32.15;16.58;;;;;;;-4.31;100.00;99464.53;12721750;23;20010;-86
2021/12/20 22:34:12;;;;;;;31.33;17.83;;;;;;;-4.32;100.00;99459.50;12731988;23;20002;-87
2021/12/20 22:39:17;;;;;;;34.97;18.20;;;;;;;-4.23;100.00;99449.63;12722964;23;20018;-84
2021/12/20 22:44:21;;;;;;;31.00;17.63;;;;;;;-4.28;100.00;99452.06;12723230;23;20014;-82
2021/12/20 22:49:24;;;;;;;30.67;17.40;;;;;;;-4.44;100.00;99454.03;12732268;23;20021;-86
2021/12/20 22:54:27;;;;;;;32.33;18.42;;;;;;;-4.42;100.00;99451.19;12717129;23;20025;-82
2021/12/20 22:59:28;;;;;;;29.50;17.65;;;;;;;-4.41;100.00;99458.88;12684267;23;20038;-84
2021/12/20 23:04:29;;;;;;;30.88;19.05;;;;;;;-4.41;100.00;99451.00;12722610;23;20009;-85
2021/12/20 23:09:39;;;;;;;37.17;18.95;;;;;;;-4.41;100.00;99445.75;12687299;23;20062;-80
2021/12/20 23:14:45;;;;;;;28.60;17.17;;;;;;;-4.65;100.00;99444.50;12689011;23;20024;-82
2021/12/20 23:19:48;;;;;;;36.20;19.23;;;;;;;-4.45;100.00;99447.16;12679635;23;20026;-81
2021/12/20 23:24:50;;;;;;;34.23;18.77;;;;;;;-4.58;100.00;99441.88;12677649;23;20014;-81
2021/12/20 23:29:54;;;;;;;32.25;17.50;;;;;;;-4.64;100.00;99442.69;12696527;23;20113;-80
2021/12/20 23:34:58;;;;;;;30.80;17.17;;;;;;;-4.77;100.00;99432.13;12686444;23;20022;-80
2021/12/20 23:40:03;;;;;;;;;;;;;;;-4.80;100.00;99429.91;12645751;23;20014;-81
2021/12/20 23:45:10;;;;;;;29.45;17.58;;;;;;;-4.64;100.00;99422.53;12668213;23;19917;-83
2021/12/20 23:50:12;;;;;;;31.52;16.45;;;;;;;-4.71;100.00;99428.75;12680307;23;20025;-82
2021/12/20 23:55:15;;;;;;;25.83;14.98;;;;;;;-4.86;100.00;99426.25;12642869;23;20022;-82
